createdAt,value
2019-01-16T00:02:11.579Z,0.72
2019-01-16T00:07:20.649Z,1.92
2019-01-16T00:09:55.535Z,2.17
2019-01-16T00:12:30.427Z,3.22
2019-01-16T00:15:07.544Z,2.08
2019-01-16T00:17:43.152Z,1.35
2019-01-16T00:20:18.028Z,1.95
2019-01-16T00:23:05.037Z,1.05
2019-01-16T00:25:56.274Z,1.70
2019-01-16T00:31:24.272Z,1.30
2019-01-16T00:36:55.349Z,1.85
2019-01-16T00:42:07.063Z,1.57
2019-01-16T00:44:41.919Z,1.22
2019-01-16T00:47:22.508Z,1.62
2019-01-16T00:50:00.251Z,1.50
2019-01-16T00:52:37.864Z,2.20
2019-01-16T00:55:15.419Z,2.42
2019-01-16T00:58:05.148Z,3.05
2019-01-16T01:00:52.256Z,3.46
2019-01-16T01:03:32.796Z,3.37
2019-01-16T01:06:10.320Z,3.58
2019-01-16T01:08:54.181Z,5.80
2019-01-16T01:11:41.464Z,1.27
2019-01-16T01:14:22.297Z,1.75
2019-01-16T01:16:57.141Z,1.62
2019-01-16T01:19:48.319Z,3.45
2019-01-16T01:25:15.157Z,1.72
2019-01-16T01:27:58.805Z,2.52
2019-01-16T01:30:33.672Z,5.83
2019-01-16T01:33:11.491Z,4.03
2019-01-16T01:36:02.600Z,3.27
2019-01-16T01:38:43.432Z,5.00
2019-01-16T01:41:18.281Z,2.83
2019-01-16T01:43:56.176Z,3.83
2019-01-16T01:46:39.854Z,5.83
2019-01-16T01:49:20.635Z,2.90
2019-01-16T01:51:55.483Z,3.20
2019-01-16T01:54:48.434Z,4.45
2019-01-16T01:57:26.245Z,3.22
2019-01-16T02:00:01.099Z,4.95
2019-01-16T02:02:52.014Z,3.55
2019-01-16T02:05:29.830Z,3.00
2019-01-16T02:08:07.324Z,5.83
2019-01-16T02:10:42.195Z,3.52
2019-01-16T02:13:23.193Z,4.10
2019-01-16T02:16:08.044Z,4.67
2019-01-16T02:18:49.492Z,5.78
2019-01-16T02:21:28.057Z,2.77
2019-01-16T02:24:11.934Z,2.98
2019-01-16T02:26:52.755Z,4.85
2019-01-16T02:29:42.692Z,3.20
2019-01-16T02:32:17.571Z,3.97
2019-01-16T02:35:08.495Z,3.67
2019-01-16T02:38:01.227Z,6.87
2019-01-16T02:40:36.078Z,4.35
2019-01-16T02:43:10.949Z,3.40
2019-01-16T02:46:02.035Z,7.67
2019-01-16T02:48:36.937Z,5.37
2019-01-16T02:51:11.790Z,5.00
2019-01-16T02:53:49.654Z,3.70
2019-01-16T02:56:24.520Z,5.42
2019-01-16T02:59:05.130Z,4.08
2019-01-16T03:01:40.042Z,4.12
2019-01-16T03:04:17.878Z,4.95
2019-01-16T03:06:52.736Z,3.92
2019-01-16T03:09:33.271Z,2.90
2019-01-16T03:12:08.154Z,3.22
2019-01-16T03:14:59.067Z,6.58
2019-01-16T03:20:24.457Z,3.83
2019-01-16T03:23:01.878Z,5.22
2019-01-16T03:25:39.395Z,4.53
2019-01-16T03:28:17.191Z,4.30
2019-01-16T03:31:03.865Z,3.10
2019-01-16T03:33:54.445Z,3.02
2019-01-16T03:36:41.018Z,3.95
2019-01-16T03:39:18.675Z,5.10
2019-01-16T03:42:09.791Z,3.85
2019-01-16T03:44:47.758Z,4.60
2019-01-16T03:47:31.452Z,5.75
2019-01-16T03:50:23.967Z,5.12
2019-01-16T03:53:01.540Z,5.15
2019-01-16T03:55:44.945Z,6.45
2019-01-16T03:58:19.791Z,6.47
2019-01-16T04:01:11.025Z,8.50
2019-01-16T04:06:40.979Z,7.30
2019-01-16T04:09:33.744Z,8.23
2019-01-16T04:12:14.366Z,5.58
2019-01-16T04:14:52.121Z,5.28
2019-01-16T04:17:26.995Z,5.67
2019-01-16T04:20:07.846Z,4.47
2019-01-16T04:22:48.474Z,6.35
2019-01-16T04:25:39.702Z,6.00
2019-01-16T04:30:50.360Z,4.28
2019-01-16T04:33:41.434Z,4.28
2019-01-16T04:36:16.297Z,5.50
2019-01-16T04:39:09.204Z,5.70
2019-01-16T04:41:44.081Z,4.47
2019-01-16T04:44:21.399Z,5.60
2019-01-16T04:46:56.275Z,2.85
2019-01-16T04:49:46.304Z,4.03
2019-01-16T04:52:23.818Z,5.67
2019-01-16T04:55:14.747Z,7.62
2019-01-16T04:57:55.292Z,3.55
2019-01-16T05:00:42.092Z,4.53
2019-01-16T05:03:29.849Z,6.75
2019-01-16T05:06:10.422Z,5.10
2019-01-16T05:08:54.316Z,5.47
2019-01-16T05:11:29.175Z,8.70
2019-01-16T05:14:04.052Z,4.42
2019-01-16T05:16:47.962Z,5.67
2019-01-16T05:19:28.485Z,6.37
2019-01-16T05:22:09.047Z,8.15
2019-01-16T05:24:43.898Z,5.67
2019-01-16T05:27:24.548Z,11.33
2019-01-16T05:30:02.173Z,6.30
2019-01-16T05:32:42.753Z,6.03
2019-01-16T05:35:33.960Z,5.03
2019-01-16T05:40:54.824Z,8.25
2019-01-16T05:43:29.747Z,6.12
2019-01-16T05:46:04.648Z,3.58
2019-01-16T05:48:45.316Z,9.80
2019-01-16T05:51:29.406Z,6.10
2019-01-16T05:54:19.174Z,7.95
2019-01-16T05:56:59.991Z,8.63
2019-01-16T05:59:37.543Z,5.95
2019-01-16T06:02:24.624Z,9.95
2019-01-16T06:04:59.468Z,6.40
2019-01-16T06:07:34.361Z,9.13
2019-01-16T06:10:16.601Z,6.85
2019-01-16T06:13:00.249Z,4.92
2019-01-16T06:15:53.311Z,9.90
2019-01-16T06:18:36.891Z,5.60
2019-01-16T06:21:14.399Z,8.23
2019-01-16T06:24:04.493Z,7.90
2019-01-16T06:26:39.347Z,6.25
2019-01-16T06:29:14.240Z,10.05
2019-01-16T06:31:49.088Z,8.70
2019-01-16T06:34:35.837Z,8.13
2019-01-16T06:37:10.699Z,6.25
2019-01-16T06:39:45.563Z,7.67
2019-01-16T06:42:23.839Z,9.53
2019-01-16T06:45:07.522Z,6.97
2019-01-16T06:47:45.310Z,10.48
2019-01-16T06:50:20.178Z,9.18
2019-01-16T06:53:01.053Z,5.12
2019-01-16T06:55:51.123Z,9.80
2019-01-16T06:58:26.019Z,11.80
2019-01-16T07:01:10.477Z,13.37
2019-01-16T07:04:01.603Z,8.05
2019-01-16T07:06:52.439Z,11.88
2019-01-16T07:09:30.464Z,7.95
2019-01-16T07:12:21.583Z,9.70
2019-01-16T07:15:05.552Z,7.45
2019-01-16T07:17:56.619Z,15.05
2019-01-16T07:20:37.599Z,15.30
2019-01-16T07:23:29.159Z,15.30
2019-01-16T07:26:04.113Z,10.88
2019-01-16T07:28:45.019Z,8.95
2019-01-16T07:31:25.984Z,9.20
2019-01-16T07:34:00.881Z,12.93
2019-01-16T07:36:35.812Z,9.15
2019-01-16T07:39:10.714Z,9.43
2019-01-16T07:41:57.429Z,12.25
2019-01-16T07:44:41.503Z,11.12
2019-01-16T07:47:28.254Z,11.60
2019-01-16T07:50:06.744Z,12.88
2019-01-16T07:52:58.279Z,15.38
2019-01-16T07:55:48.461Z,15.40
2019-01-16T07:58:23.335Z,15.90
2019-01-16T08:01:07.514Z,15.53
2019-01-16T08:03:48.373Z,13.18
2019-01-16T08:06:39.832Z,11.55
2019-01-16T08:09:20.835Z,14.20
2019-01-16T08:12:07.521Z,14.28
2019-01-16T08:14:51.437Z,12.25
2019-01-16T08:17:42.650Z,15.85
2019-01-16T08:23:11.016Z,14.73
2019-01-16T08:25:54.796Z,12.63
2019-01-16T08:28:32.427Z,12.20
2019-01-16T08:31:10.320Z,11.83
2019-01-16T08:33:45.185Z,15.75
2019-01-16T08:36:20.095Z,17.30
2019-01-16T08:38:57.355Z,11.33
2019-01-16T08:41:38.349Z,12.95
2019-01-16T08:44:14.016Z,15.43
2019-01-16T08:46:59.225Z,12.40
2019-01-16T08:49:39.534Z,18.67
2019-01-16T08:52:30.773Z,10.17
2019-01-16T08:57:40.597Z,10.35
2019-01-16T09:00:15.529Z,15.50
2019-01-16T09:02:50.433Z,12.93
2019-01-16T09:05:37.143Z,12.23
2019-01-16T09:08:28.099Z,12.23
2019-01-16T09:14:04.223Z,12.95
2019-01-16T09:16:39.092Z,14.78
2019-01-16T09:19:13.999Z,13.32
2019-01-16T09:22:03.719Z,10.40
2019-01-16T09:24:56.659Z,16.27
2019-01-16T09:27:34.477Z,12.93
2019-01-16T09:30:12.444Z,16.52
2019-01-16T09:32:59.595Z,12.30
2019-01-16T09:35:34.494Z,13.98
2019-01-16T09:38:21.355Z,11.78
2019-01-16T09:40:59.162Z,13.63
2019-01-16T09:43:49.031Z,12.15
2019-01-16T09:46:23.913Z,11.90
2019-01-16T09:48:58.951Z,9.83
2019-01-16T09:51:51.678Z,10.35
2019-01-16T09:54:42.464Z,11.25
2019-01-16T09:57:25.878Z,13.32
2019-01-16T10:00:00.762Z,10.28
2019-01-16T10:02:51.757Z,8.78
2019-01-16T10:05:29.665Z,11.35
2019-01-16T10:08:05.333Z,13.72
2019-01-16T10:10:49.081Z,8.08
2019-01-16T10:13:26.701Z,14.75
2019-01-16T10:16:17.910Z,10.88
2019-01-16T10:19:07.983Z,12.93
2019-01-16T10:21:48.556Z,9.07
2019-01-16T10:24:23.437Z,11.45
2019-01-16T10:27:03.950Z,11.08
2019-01-16T10:29:41.600Z,16.23
2019-01-16T10:32:31.318Z,9.63
2019-01-16T10:35:16.690Z,13.53
2019-01-16T10:38:07.596Z,9.45
2019-01-16T10:40:58.501Z,12.68
2019-01-16T10:43:49.763Z,8.70
2019-01-16T10:49:23.772Z,12.05
2019-01-16T10:51:58.667Z,13.25
2019-01-16T10:54:42.584Z,13.18
2019-01-16T10:57:17.472Z,8.98
2019-01-16T11:00:07.445Z,11.28
2019-01-16T11:02:45.020Z,10.18
2019-01-16T11:05:22.917Z,8.85
2019-01-16T11:08:03.896Z,10.43
2019-01-16T11:10:39.580Z,17.48
2019-01-16T11:13:24.122Z,9.60
2019-01-16T11:16:13.863Z,9.80
2019-01-16T11:19:06.873Z,12.58
2019-01-16T11:21:57.756Z,17.65
2019-01-16T11:24:48.873Z,14.83
2019-01-16T11:27:23.750Z,11.73
2019-01-16T11:30:07.436Z,15.65
2019-01-16T11:32:48.139Z,7.58
2019-01-16T11:35:23.067Z,20.75
2019-01-16T11:38:00.900Z,14.20
2019-01-16T11:40:35.827Z,12.65
2019-01-16T11:43:25.795Z,10.65
2019-01-16T11:46:00.781Z,12.30
2019-01-16T11:48:35.650Z,11.10
2019-01-16T11:51:10.531Z,10.10
2019-01-16T11:53:57.641Z,9.68
2019-01-16T11:56:38.287Z,12.30
2019-01-16T11:59:13.164Z,17.92
2019-01-16T12:01:48.017Z,18.52
2019-01-16T12:04:38.004Z,12.35
2019-01-16T12:07:12.859Z,12.53
2019-01-16T12:10:03.940Z,10.45
2019-01-16T12:12:41.629Z,12.95
2019-01-16T12:15:28.508Z,11.73
2019-01-16T12:18:06.398Z,9.95
2019-01-16T12:20:44.007Z,16.48
2019-01-16T12:23:24.600Z,9.38
2019-01-16T12:25:59.470Z,10.13
2019-01-16T12:28:34.355Z,16.62
2019-01-16T12:31:15.266Z,11.97
2019-01-16T12:33:50.168Z,12.15
2019-01-16T12:36:25.047Z,14.70
2019-01-16T12:39:16.467Z,16.20
2019-01-16T12:41:59.580Z,13.93
2019-01-16T12:44:42.642Z,9.15
2019-01-16T12:47:33.736Z,17.52
2019-01-16T12:50:11.573Z,10.98
2019-01-16T12:52:55.518Z,14.28
2019-01-16T12:55:42.673Z,15.98
2019-01-16T12:58:20.230Z,9.40
2019-01-16T13:00:58.111Z,10.93
2019-01-16T13:03:38.933Z,9.08
2019-01-16T13:06:13.820Z,12.23
2019-01-16T13:09:03.589Z,9.88
2019-01-16T13:11:53.725Z,11.55
2019-01-16T13:14:40.582Z,10.35
2019-01-16T13:17:18.556Z,9.90
2019-01-16T13:19:56.119Z,13.83
2019-01-16T13:22:46.528Z,7.12
2019-01-16T13:25:21.445Z,6.08
2019-01-16T13:27:59.054Z,12.75
2019-01-16T13:30:33.904Z,7.20
2019-01-16T13:33:14.757Z,9.60
2019-01-16T13:35:52.684Z,11.73
2019-01-16T13:38:27.543Z,9.28
2019-01-16T13:41:08.633Z,14.98
2019-01-16T13:43:49.523Z,11.60
2019-01-16T13:46:24.455Z,11.63
2019-01-16T13:49:08.100Z,12.68
2019-01-16T13:51:59.585Z,8.88
2019-01-16T13:54:50.818Z,8.48
2019-01-16T14:00:05.640Z,7.80
2019-01-16T14:02:43.642Z,10.28
2019-01-16T14:05:18.510Z,10.35
2019-01-16T14:07:53.396Z,6.83
2019-01-16T14:10:37.559Z,13.05
2019-01-16T14:13:18.221Z,9.20
2019-01-16T14:15:56.030Z,7.03
2019-01-16T14:18:33.604Z,10.03
2019-01-16T14:21:08.516Z,9.43
2019-01-16T14:23:49.346Z,10.78
2019-01-16T14:26:27.294Z,6.75
2019-01-16T14:29:18.707Z,14.03
2019-01-16T14:32:10.066Z,11.48
2019-01-16T14:35:01.388Z,7.17
2019-01-16T14:37:42.391Z,7.10
2019-01-16T14:40:22.951Z,8.20
2019-01-16T14:43:14.144Z,13.90
2019-01-16T14:45:49.012Z,8.33
2019-01-16T14:48:41.960Z,8.10
2019-01-16T14:51:25.902Z,9.40
2019-01-16T14:54:17.344Z,12.70
2019-01-16T14:57:01.386Z,13.65
2019-01-16T14:59:38.909Z,11.28
2019-01-16T15:02:16.460Z,11.28
2019-01-16T15:04:54.529Z,11.43
2019-01-16T15:07:45.759Z,9.78
2019-01-16T15:10:20.646Z,11.48
2019-01-16T15:12:55.583Z,16.75
2019-01-16T15:15:33.155Z,10.58
2019-01-16T15:18:23.087Z,11.03
2019-01-16T15:21:07.135Z,7.47
2019-01-16T15:23:47.491Z,9.43
2019-01-16T15:26:40.412Z,10.85
2019-01-16T15:29:17.858Z,10.63
2019-01-16T15:34:47.278Z,8.73
2019-01-16T15:37:24.803Z,9.05
2019-01-16T15:40:14.726Z,11.93
2019-01-16T15:42:52.515Z,8.98
2019-01-16T15:45:27.389Z,15.38
2019-01-16T15:48:18.763Z,11.95
2019-01-16T15:53:33.463Z,11.75
2019-01-16T15:56:11.057Z,11.68
2019-01-16T15:58:54.975Z,10.20
2019-01-16T16:01:46.143Z,7.45
2019-01-16T16:04:24.025Z,9.58
2019-01-16T16:06:58.899Z,10.28
2019-01-16T16:09:33.767Z,10.98
2019-01-16T16:12:26.407Z,7.72
2019-01-16T16:15:01.301Z,11.28
2019-01-16T16:17:48.067Z,13.80
2019-01-16T16:20:28.710Z,10.98
2019-01-16T16:23:12.649Z,10.65
2019-01-16T16:25:56.575Z,10.00
2019-01-16T16:28:34.109Z,13.43
2019-01-16T16:31:08.981Z,11.18
2019-01-16T16:33:53.182Z,9.83
2019-01-16T16:36:33.748Z,11.53
2019-01-16T16:39:25.606Z,5.25
2019-01-16T16:42:00.463Z,11.30
2019-01-16T16:44:38.316Z,11.10
2019-01-16T16:47:15.823Z,9.00
2019-01-16T16:50:02.558Z,7.90
2019-01-16T16:52:40.146Z,9.63
2019-01-16T16:55:18.030Z,10.60
2019-01-16T16:57:52.887Z,10.48
2019-01-16T17:00:33.843Z,9.13
2019-01-16T17:03:14.531Z,13.88
2019-01-16T17:06:04.247Z,17.27
2019-01-16T17:08:57.292Z,8.33
2019-01-16T17:11:32.167Z,15.83
2019-01-16T17:14:07.028Z,9.75
2019-01-16T17:16:47.702Z,10.10
2019-01-16T17:19:31.340Z,9.40
2019-01-16T17:22:18.688Z,11.43
2019-01-16T17:24:56.250Z,10.70
2019-01-16T17:27:47.094Z,8.70
2019-01-16T17:30:37.020Z,10.40
2019-01-16T17:33:17.778Z,11.70
2019-01-16T17:36:01.497Z,12.33
2019-01-16T17:38:45.068Z,12.95
2019-01-16T17:41:19.961Z,16.85
2019-01-16T17:44:10.840Z,14.10
2019-01-16T17:46:48.119Z,8.90
2019-01-16T17:49:28.690Z,10.35
2019-01-16T17:52:19.562Z,8.48
2019-01-16T17:55:00.488Z,8.15
2019-01-16T17:57:50.311Z,8.95
2019-01-16T18:00:36.964Z,8.68
2019-01-16T18:03:11.840Z,7.70
2019-01-16T18:05:49.387Z,9.83
2019-01-16T18:08:24.283Z,10.23
2019-01-16T18:10:59.160Z,16.57
2019-01-16T18:13:34.113Z,9.20
2019-01-16T18:16:25.426Z,9.33
2019-01-16T18:21:43.325Z,14.68
2019-01-16T18:24:20.840Z,14.33
2019-01-16T18:26:55.715Z,10.70
2019-01-16T18:29:30.578Z,10.75
2019-01-16T18:32:20.429Z,14.28
2019-01-16T18:34:55.309Z,8.23
2019-01-16T18:37:36.180Z,15.18
2019-01-16T18:40:13.467Z,11.30
2019-01-16T18:43:04.401Z,11.83
2019-01-16T18:45:48.976Z,9.44
2019-01-16T18:48:29.836Z,15.30
2019-01-16T18:51:04.709Z,12.15
2019-01-16T18:53:48.525Z,11.48
2019-01-16T18:56:39.525Z,14.90
2019-01-16T18:59:30.680Z,13.88
2019-01-16T19:02:05.819Z,11.88
2019-01-16T19:04:56.982Z,14.45
2019-01-16T19:07:31.868Z,7.78
2019-01-16T19:10:21.876Z,14.98
2019-01-16T19:13:08.542Z,10.60
2019-01-16T19:15:46.491Z,13.83
2019-01-16T19:18:21.361Z,14.87
2019-01-16T19:21:01.920Z,12.93
2019-01-16T19:23:45.519Z,10.78
2019-01-16T19:26:35.547Z,12.60
2019-01-16T19:29:12.975Z,12.80
2019-01-16T19:32:02.932Z,11.30
2019-01-16T19:34:37.804Z,10.40
2019-01-16T19:37:13.624Z,15.85
2019-01-16T19:40:04.771Z,13.43
2019-01-16T19:45:22.636Z,17.27
2019-01-16T19:48:03.630Z,15.45
2019-01-16T19:50:54.530Z,12.15
2019-01-16T19:53:29.433Z,11.45
2019-01-16T19:56:04.358Z,10.43
2019-01-16T19:58:45.402Z,12.25
2019-01-16T20:01:25.943Z,12.80
2019-01-16T20:04:03.817Z,10.98
2019-01-16T20:06:55.006Z,13.00
2019-01-16T20:09:38.914Z,10.32
2019-01-16T20:12:13.774Z,8.73
2019-01-16T20:15:03.757Z,11.90
2019-01-16T20:17:55.020Z,17.10
2019-01-16T20:23:24.543Z,10.82
2019-01-16T20:26:11.581Z,12.70
2019-01-16T20:29:01.310Z,11.25
2019-01-16T20:31:48.025Z,12.37
2019-01-16T20:34:28.867Z,11.63
2019-01-16T20:37:03.736Z,13.35
2019-01-16T20:39:54.931Z,10.88
2019-01-16T20:45:21.052Z,7.47
2019-01-16T20:48:01.649Z,10.50
2019-01-16T20:50:42.174Z,12.13
2019-01-16T20:53:22.902Z,9.13
2019-01-16T20:56:00.704Z,11.93
2019-01-16T20:58:44.535Z,7.87
2019-01-16T21:01:31.395Z,14.78
2019-01-16T21:04:06.362Z,10.82
2019-01-16T21:06:49.949Z,10.40
2019-01-16T21:09:27.844Z,11.22
2019-01-16T21:12:08.994Z,12.15
2019-01-16T21:14:59.997Z,12.35
2019-01-16T21:17:37.912Z,13.60
2019-01-16T21:20:12.808Z,19.98
2019-01-16T21:22:59.746Z,13.83
2019-01-16T21:25:37.321Z,15.03
2019-01-16T21:28:12.193Z,13.48
2019-01-16T21:31:02.205Z,12.47
2019-01-16T21:33:55.010Z,17.40
2019-01-16T21:36:29.897Z,11.90
2019-01-16T21:39:07.454Z,13.85
2019-01-16T21:41:54.200Z,14.55
2019-01-16T21:44:34.773Z,11.28
2019-01-16T21:47:09.649Z,12.90
2019-01-16T21:49:56.332Z,10.88
2019-01-16T21:52:31.389Z,14.78
2019-01-16T21:55:13.074Z,14.73
2019-01-16T21:57:50.863Z,10.50
2019-01-16T22:00:25.754Z,18.77
2019-01-16T22:03:15.483Z,14.00
2019-01-16T22:05:56.329Z,16.23
2019-01-16T22:08:31.726Z,18.00
2019-01-16T22:11:06.703Z,12.43
2019-01-16T22:13:44.744Z,8.43
2019-01-16T22:16:25.682Z,11.90
2019-01-16T22:19:15.458Z,10.45
2019-01-16T22:21:56.383Z,12.30
2019-01-16T22:24:42.971Z,14.95
2019-01-16T22:27:17.844Z,11.73
2019-01-16T22:30:08.738Z,11.30
2019-01-16T22:32:43.675Z,17.92
2019-01-16T22:35:34.595Z,12.23
2019-01-16T22:41:13.599Z,16.57
2019-01-16T22:44:00.191Z,11.90
2019-01-16T22:46:47.046Z,10.90
2019-01-16T22:49:39.837Z,10.63
2019-01-16T22:52:29.859Z,19.50
2019-01-16T22:55:19.544Z,9.35
2019-01-16T22:57:54.447Z,10.72
2019-01-16T23:00:45.146Z,13.65
2019-01-16T23:03:22.788Z,10.68
2019-01-16T23:06:00.363Z,8.83
2019-01-16T23:08:35.242Z,16.17
2019-01-16T23:11:10.115Z,10.05
2019-01-16T23:13:47.658Z,13.48
2019-01-16T23:16:38.622Z,6.95
2019-01-16T23:19:28.584Z,9.53
2019-01-16T23:22:21.448Z,10.70
2019-01-16T23:25:05.062Z,10.20
2019-01-16T23:27:55.935Z,13.88
2019-01-16T23:30:30.801Z,9.98
2019-01-16T23:33:11.639Z,11.25
2019-01-16T23:36:02.547Z,12.73
2019-01-16T23:38:40.353Z,16.60
2019-01-16T23:41:21.295Z,11.10
2019-01-16T23:44:05.119Z,13.48
2019-01-16T23:46:45.398Z,10.32
2019-01-16T23:49:23.113Z,11.47
2019-01-16T23:51:57.971Z,14.05
2019-01-16T23:54:48.031Z,13.32
2019-01-16T23:57:31.730Z,9.98
